sensor_id;sensor_type;location;lat;lon;timestamp;temperature;humidity
13488;DHT22;6816;48.506;9.050;2023-05-14T00:02:34;14.10;99.90
13488;DHT22;6816;48.506;9.050;2023-05-14T00:05:35;14.20;99.90
13488;DHT22;6816;48.506;9.050;2023-05-14T00:08:36;14.10;99.90
13488;DHT22;6816;48.506;9.050;2023-05-14T00:11:36;14.00;99.90
13488;DHT22;6816;48.506;9.050;2023-05-14T00:14:37;14.00;99.90
13488;DHT22;6816;48.506;9.050;2023-05-14T00:17:38;14.00;99.90
13488;DHT22;6816;48.506;9.050;2023-05-14T00:20:39;14.00;99.90
13488;DHT22;6816;48.506;9.050;2023-05-14T00:23:40;14.00;99.90
13488;DHT22;6816;48.506;9.050;2023-05-14T00:26:40;14.00;99.90
13488;DHT22;6816;48.506;9.050;2023-05-14T00:29:41;14.00;99.90
13488;DHT22;6816;48.506;9.050;2023-05-14T00:32:42;14.00;99.90
13488;DHT22;6816;48.506;9.050;2023-05-14T00:35:42;14.00;99.90
13488;DHT22;6816;48.506;9.050;2023-05-14T00:38:43;14.00;99.90
13488;DHT22;6816;48.506;9.050;2023-05-14T00:41:43;14.00;99.90
13488;DHT22;6816;48.506;9.050;2023-05-14T00:44:44;14.00;99.90
13488;DHT22;6816;48.506;9.050;2023-05-14T00:47:45;13.90;99.90
13488;DHT22;6816;48.506;9.050;2023-05-14T00:50:46;13.90;99.90
13488;DHT22;6816;48.506;9.050;2023-05-14T00:53:47;13.90;99.90
13488;DHT22;6816;48.506;9.050;2023-05-14T00:56:48;13.90;99.90
13488;DHT22;6816;48.506;9.050;2023-05-14T00:59:49;13.90;99.90
13488;DHT22;6816;48.506;9.050;2023-05-14T01:02:50;13.90;99.90
13488;DHT22;6816;48.506;9.050;2023-05-14T01:06:25;13.80;99.90
13488;DHT22;6816;48.506;9.050;2023-05-14T01:13:43;13.80;99.90
13488;DHT22;6816;48.506;9.050;2023-05-14T01:16:48;13.80;99.90
13488;DHT22;6816;48.506;9.050;2023-05-14T01:19:50;13.80;99.90
13488;DHT22;6816;48.506;9.050;2023-05-14T01:22:51;13.80;99.90
13488;DHT22;6816;48.506;9.050;2023-05-14T01:25:52;13.70;99.90
13488;DHT22;6816;48.506;9.050;2023-05-14T01:28:54;13.70;99.90
13488;DHT22;6816;48.506;9.050;2023-05-14T01:31:57;13.70;99.90
13488;DHT22;6816;48.506;9.050;2023-05-14T01:35:00;13.70;99.90
13488;DHT22;6816;48.506;9.050;2023-05-14T01:38:03;13.70;99.90
13488;DHT22;6816;48.506;9.050;2023-05-14T01:41:05;13.70;99.90
13488;DHT22;6816;48.506;9.050;2023-05-14T01:44:10;13.90;99.90
13488;DHT22;6816;48.506;9.050;2023-05-14T01:47:10;13.70;99.90
13488;DHT22;6816;48.506;9.050;2023-05-14T01:50:11;13.70;99.90
13488;DHT22;6816;48.506;9.050;2023-05-14T01:53:12;13.70;99.90
13488;DHT22;6816;48.506;9.050;2023-05-14T01:56:12;13.70;99.90
13488;DHT22;6816;48.506;9.050;2023-05-14T01:59:13;13.70;99.90
13488;DHT22;6816;48.506;9.050;2023-05-14T02:02:14;13.70;99.90
13488;DHT22;6816;48.506;9.050;2023-05-14T02:05:14;13.70;99.90
13488;DHT22;6816;48.506;9.050;2023-05-14T02:08:15;13.70;99.90
13488;DHT22;6816;48.506;9.050;2023-05-14T02:11:15;13.70;99.90
13488;DHT22;6816;48.506;9.050;2023-05-14T02:14:16;13.60;99.90
13488;DHT22;6816;48.506;9.050;2023-05-14T02:17:17;13.60;99.90
13488;DHT22;6816;48.506;9.050;2023-05-14T02:20:17;13.60;99.90
13488;DHT22;6816;48.506;9.050;2023-05-14T02:23:18;13.60;99.90
13488;DHT22;6816;48.506;9.050;2023-05-14T02:26:19;13.60;99.90
13488;DHT22;6816;48.506;9.050;2023-05-14T02:29:20;13.60;99.90
13488;DHT22;6816;48.506;9.050;2023-05-14T02:32:21;13.60;99.90
13488;DHT22;6816;48.506;9.050;2023-05-14T02:35:21;13.50;99.90
13488;DHT22;6816;48.506;9.050;2023-05-14T02:38:24;13.50;99.90
13488;DHT22;6816;48.506;9.050;2023-05-14T02:41:25;13.50;99.90
13488;DHT22;6816;48.506;9.050;2023-05-14T02:44:26;13.50;99.90
13488;DHT22;6816;48.506;9.050;2023-05-14T02:47:26;13.50;99.90
13488;DHT22;6816;48.506;9.050;2023-05-14T02:50:27;13.50;99.90
13488;DHT22;6816;48.506;9.050;2023-05-14T02:53:27;13.50;99.90
13488;DHT22;6816;48.506;9.050;2023-05-14T02:56:28;13.50;99.90
13488;DHT22;6816;48.506;9.050;2023-05-14T02:59:29;13.50;99.90
13488;DHT22;6816;48.506;9.050;2023-05-14T03:02:30;13.50;99.90
13488;DHT22;6816;48.506;9.050;2023-05-14T03:05:31;13.50;99.90
13488;DHT22;6816;48.506;9.050;2023-05-14T03:08:32;13.60;99.90
13488;DHT22;6816;48.506;9.050;2023-05-14T03:11:32;13.50;99.90
13488;DHT22;6816;48.506;9.050;2023-05-14T03:14:33;13.60;99.90
13488;DHT22;6816;48.506;9.050;2023-05-14T03:17:33;13.60;99.90
13488;DHT22;6816;48.506;9.050;2023-05-14T03:20:34;13.60;99.90
13488;DHT22;6816;48.506;9.050;2023-05-14T03:23:35;13.60;99.90
13488;DHT22;6816;48.506;9.050;2023-05-14T03:26:36;13.60;99.90
13488;DHT22;6816;48.506;9.050;2023-05-14T03:29:36;13.60;99.90
13488;DHT22;6816;48.506;9.050;2023-05-14T03:32:37;13.60;99.90
13488;DHT22;6816;48.506;9.050;2023-05-14T03:35:38;13.70;99.90
13488;DHT22;6816;48.506;9.050;2023-05-14T03:38:38;13.70;99.90
13488;DHT22;6816;48.506;9.050;2023-05-14T03:41:39;13.70;99.90
13488;DHT22;6816;48.506;9.050;2023-05-14T03:44:40;13.70;99.90
13488;DHT22;6816;48.506;9.050;2023-05-14T03:47:40;13.70;99.90
13488;DHT22;6816;48.506;9.050;2023-05-14T03:50:41;13.70;99.90
13488;DHT22;6816;48.506;9.050;2023-05-14T03:53:42;13.70;99.90
13488;DHT22;6816;48.506;9.050;2023-05-14T03:56:42;13.70;99.90
13488;DHT22;6816;48.506;9.050;2023-05-14T03:59:43;13.70;99.90
13488;DHT22;6816;48.506;9.050;2023-05-14T04:02:43;13.70;99.90
13488;DHT22;6816;48.506;9.050;2023-05-14T04:05:44;13.80;99.90
13488;DHT22;6816;48.506;9.050;2023-05-14T04:08:45;13.80;99.90
13488;DHT22;6816;48.506;9.050;2023-05-14T04:11:46;13.70;99.90
13488;DHT22;6816;48.506;9.050;2023-05-14T04:14:46;13.80;99.90
13488;DHT22;6816;48.506;9.050;2023-05-14T04:17:47;13.80;99.90
13488;DHT22;6816;48.506;9.050;2023-05-14T04:20:48;13.80;99.90
13488;DHT22;6816;48.506;9.050;2023-05-14T04:23:48;13.80;99.90
13488;DHT22;6816;48.506;9.050;2023-05-14T04:26:50;13.90;99.90
13488;DHT22;6816;48.506;9.050;2023-05-14T04:29:50;13.90;99.90
13488;DHT22;6816;48.506;9.050;2023-05-14T04:32:51;13.80;99.90
13488;DHT22;6816;48.506;9.050;2023-05-14T04:35:52;13.90;99.90
13488;DHT22;6816;48.506;9.050;2023-05-14T04:38:52;13.90;99.90
13488;DHT22;6816;48.506;9.050;2023-05-14T04:41:53;13.90;99.90
13488;DHT22;6816;48.506;9.050;2023-05-14T04:44:54;13.90;99.90
13488;DHT22;6816;48.506;9.050;2023-05-14T04:47:54;13.90;99.90
13488;DHT22;6816;48.506;9.050;2023-05-14T04:50:55;14.00;99.90
13488;DHT22;6816;48.506;9.050;2023-05-14T04:53:55;14.00;99.90
13488;DHT22;6816;48.506;9.050;2023-05-14T04:56:56;14.00;99.90
13488;DHT22;6816;48.506;9.050;2023-05-14T04:59:57;14.00;99.90
13488;DHT22;6816;48.506;9.050;2023-05-14T05:02:57;14.10;99.90
13488;DHT22;6816;48.506;9.050;2023-05-14T05:05:58;14.10;99.90
13488;DHT22;6816;48.506;9.050;2023-05-14T05:08:58;14.10;99.90
13488;DHT22;6816;48.506;9.050;2023-05-14T05:11:59;14.20;99.90
13488;DHT22;6816;48.506;9.050;2023-05-14T05:15:00;14.20;99.90
13488;DHT22;6816;48.506;9.050;2023-05-14T05:18:01;14.20;99.90
13488;DHT22;6816;48.506;9.050;2023-05-14T05:21:02;14.20;99.90
13488;DHT22;6816;48.506;9.050;2023-05-14T05:24:03;14.20;99.90
13488;DHT22;6816;48.506;9.050;2023-05-14T05:27:04;14.30;99.90
13488;DHT22;6816;48.506;9.050;2023-05-14T05:30:05;14.30;99.90
13488;DHT22;6816;48.506;9.050;2023-05-14T05:33:06;14.30;99.90
13488;DHT22;6816;48.506;9.050;2023-05-14T05:36:10;14.30;99.90
13488;DHT22;6816;48.506;9.050;2023-05-14T05:39:13;14.40;99.90
13488;DHT22;6816;48.506;9.050;2023-05-14T05:42:14;14.40;99.90
13488;DHT22;6816;48.506;9.050;2023-05-14T05:45:15;14.40;99.90
13488;DHT22;6816;48.506;9.050;2023-05-14T05:48:15;14.50;99.90
13488;DHT22;6816;48.506;9.050;2023-05-14T05:51:16;14.50;99.90
13488;DHT22;6816;48.506;9.050;2023-05-14T05:54:16;14.50;99.90
13488;DHT22;6816;48.506;9.050;2023-05-14T05:57:17;14.60;99.90
13488;DHT22;6816;48.506;9.050;2023-05-14T06:00:18;14.60;99.90
13488;DHT22;6816;48.506;9.050;2023-05-14T06:03:19;14.60;99.90
13488;DHT22;6816;48.506;9.050;2023-05-14T06:06:21;14.70;99.90
13488;DHT22;6816;48.506;9.050;2023-05-14T06:09:22;14.70;99.90
13488;DHT22;6816;48.506;9.050;2023-05-14T06:12:22;14.80;99.90
13488;DHT22;6816;48.506;9.050;2023-05-14T06:15:23;14.80;99.90
13488;DHT22;6816;48.506;9.050;2023-05-14T06:18:23;14.80;99.90
13488;DHT22;6816;48.506;9.050;2023-05-14T06:21:24;14.80;99.90
13488;DHT22;6816;48.506;9.050;2023-05-14T06:24:25;14.80;99.90
13488;DHT22;6816;48.506;9.050;2023-05-14T06:27:25;14.80;99.90
13488;DHT22;6816;48.506;9.050;2023-05-14T06:30:26;15.00;99.90
13488;DHT22;6816;48.506;9.050;2023-05-14T06:33:26;14.80;99.90
13488;DHT22;6816;48.506;9.050;2023-05-14T06:36:30;14.80;99.90
13488;DHT22;6816;48.506;9.050;2023-05-14T06:39:31;14.80;99.90
13488;DHT22;6816;48.506;9.050;2023-05-14T06:42:31;14.80;99.90
13488;DHT22;6816;48.506;9.050;2023-05-14T06:45:32;14.80;99.90
13488;DHT22;6816;48.506;9.050;2023-05-14T06:48:33;14.80;99.90
13488;DHT22;6816;48.506;9.050;2023-05-14T06:51:33;14.80;99.90
13488;DHT22;6816;48.506;9.050;2023-05-14T06:54:34;14.80;99.90
13488;DHT22;6816;48.506;9.050;2023-05-14T06:57:35;14.80;99.90
13488;DHT22;6816;48.506;9.050;2023-05-14T07:00:35;14.80;99.90
13488;DHT22;6816;48.506;9.050;2023-05-14T07:03:36;14.80;99.90
13488;DHT22;6816;48.506;9.050;2023-05-14T07:06:37;14.90;99.90
13488;DHT22;6816;48.506;9.050;2023-05-14T07:09:37;14.90;99.90
13488;DHT22;6816;48.506;9.050;2023-05-14T07:12:38;14.90;99.90
13488;DHT22;6816;48.506;9.050;2023-05-14T07:15:39;14.90;99.90
13488;DHT22;6816;48.506;9.050;2023-05-14T07:18:39;15.00;99.90
13488;DHT22;6816;48.506;9.050;2023-05-14T07:21:40;15.00;99.90
13488;DHT22;6816;48.506;9.050;2023-05-14T07:24:41;15.00;99.90
13488;DHT22;6816;48.506;9.050;2023-05-14T07:27:41;15.00;99.90
13488;DHT22;6816;48.506;9.050;2023-05-14T07:30:42;15.00;99.90
13488;DHT22;6816;48.506;9.050;2023-05-14T07:33:43;15.00;99.90
13488;DHT22;6816;48.506;9.050;2023-05-14T07:36:43;15.10;99.90
13488;DHT22;6816;48.506;9.050;2023-05-14T07:39:44;15.10;99.90
13488;DHT22;6816;48.506;9.050;2023-05-14T07:42:44;15.10;99.90
13488;DHT22;6816;48.506;9.050;2023-05-14T07:45:45;15.10;99.90
13488;DHT22;6816;48.506;9.050;2023-05-14T07:48:46;15.20;99.90
13488;DHT22;6816;48.506;9.050;2023-05-14T07:51:46;15.20;99.90
13488;DHT22;6816;48.506;9.050;2023-05-14T07:54:47;15.20;99.90
13488;DHT22;6816;48.506;9.050;2023-05-14T07:57:48;15.20;99.90
13488;DHT22;6816;48.506;9.050;2023-05-14T08:00:48;15.10;99.90
13488;DHT22;6816;48.506;9.050;2023-05-14T08:03:49;15.10;99.90
13488;DHT22;6816;48.506;9.050;2023-05-14T08:06:50;15.10;99.90
13488;DHT22;6816;48.506;9.050;2023-05-14T08:09:51;15.10;99.90
13488;DHT22;6816;48.506;9.050;2023-05-14T08:12:51;15.10;99.90
13488;DHT22;6816;48.506;9.050;2023-05-14T08:15:52;15.10;99.90
13488;DHT22;6816;48.506;9.050;2023-05-14T08:18:52;15.20;99.90
13488;DHT22;6816;48.506;9.050;2023-05-14T08:21:53;15.20;99.90
13488;DHT22;6816;48.506;9.050;2023-05-14T08:24:54;15.20;99.90
13488;DHT22;6816;48.506;9.050;2023-05-14T08:27:54;15.20;99.90
13488;DHT22;6816;48.506;9.050;2023-05-14T08:30:55;15.20;99.90
13488;DHT22;6816;48.506;9.050;2023-05-14T08:33:56;15.30;99.90
13488;DHT22;6816;48.506;9.050;2023-05-14T08:36:56;15.40;99.90
13488;DHT22;6816;48.506;9.050;2023-05-14T08:39:57;15.40;99.90
13488;DHT22;6816;48.506;9.050;2023-05-14T08:42:58;15.60;99.90
13488;DHT22;6816;48.506;9.050;2023-05-14T08:46:00;15.70;99.90
13488;DHT22;6816;48.506;9.050;2023-05-14T08:52:29;16.00;99.90
13488;DHT22;6816;48.506;9.050;2023-05-14T08:55:30;16.10;99.90
13488;DHT22;6816;48.506;9.050;2023-05-14T08:58:33;16.20;99.90
13488;DHT22;6816;48.506;9.050;2023-05-14T09:01:33;16.30;99.90
13488;DHT22;6816;48.506;9.050;2023-05-14T09:04:35;16.40;99.90
13488;DHT22;6816;48.506;9.050;2023-05-14T09:07:36;16.60;99.90
13488;DHT22;6816;48.506;9.050;2023-05-14T09:10:37;16.60;99.90
13488;DHT22;6816;48.506;9.050;2023-05-14T09:13:39;16.70;99.90
13488;DHT22;6816;48.506;9.050;2023-05-14T09:16:40;16.90;99.90
13488;DHT22;6816;48.506;9.050;2023-05-14T09:19:45;16.90;99.90
13488;DHT22;6816;48.506;9.050;2023-05-14T09:22:52;17.00;99.90
13488;DHT22;6816;48.506;9.050;2023-05-14T09:25:53;17.00;99.90
13488;DHT22;6816;48.506;9.050;2023-05-14T09:28:56;17.00;99.90
13488;DHT22;6816;48.506;9.050;2023-05-14T09:31:58;17.10;99.90
13488;DHT22;6816;48.506;9.050;2023-05-14T09:35:10;17.10;99.90
13488;DHT22;6816;48.506;9.050;2023-05-14T09:38:11;17.20;99.90
13488;DHT22;6816;48.506;9.050;2023-05-14T09:41:11;17.30;99.90
13488;DHT22;6816;48.506;9.050;2023-05-14T09:44:12;17.50;99.90
13488;DHT22;6816;48.506;9.050;2023-05-14T09:47:14;17.60;99.90
13488;DHT22;6816;48.506;9.050;2023-05-14T09:50:14;17.70;99.90
13488;DHT22;6816;48.506;9.050;2023-05-14T09:53:15;17.90;99.90
13488;DHT22;6816;48.506;9.050;2023-05-14T09:56:17;18.00;99.90
13488;DHT22;6816;48.506;9.050;2023-05-14T09:59:17;18.10;99.90
13488;DHT22;6816;48.506;9.050;2023-05-14T10:02:24;18.30;99.90
13488;DHT22;6816;48.506;9.050;2023-05-14T10:05:25;18.40;99.90
13488;DHT22;6816;48.506;9.050;2023-05-14T10:08:34;18.50;99.90
13488;DHT22;6816;48.506;9.050;2023-05-14T10:11:37;18.60;99.90
13488;DHT22;6816;48.506;9.050;2023-05-14T10:14:40;18.80;99.90
13488;DHT22;6816;48.506;9.050;2023-05-14T10:17:43;18.90;99.90
13488;DHT22;6816;48.506;9.050;2023-05-14T10:20:55;18.90;99.90
13488;DHT22;6816;48.506;9.050;2023-05-14T10:23:57;19.00;99.90
13488;DHT22;6816;48.506;9.050;2023-05-14T10:26:57;19.00;99.90
13488;DHT22;6816;48.506;9.050;2023-05-14T10:29:58;18.90;99.90
13488;DHT22;6816;48.506;9.050;2023-05-14T10:33:10;18.90;99.90
13488;DHT22;6816;48.506;9.050;2023-05-14T10:36:11;18.90;99.90
13488;DHT22;6816;48.506;9.050;2023-05-14T10:39:12;18.90;99.90
13488;DHT22;6816;48.506;9.050;2023-05-14T10:45:16;19.00;99.90
13488;DHT22;6816;48.506;9.050;2023-05-14T10:48:17;19.00;99.90
13488;DHT22;6816;48.506;9.050;2023-05-14T10:51:18;19.20;99.90
13488;DHT22;6816;48.506;9.050;2023-05-14T10:54:22;19.30;99.90
13488;DHT22;6816;48.506;9.050;2023-05-14T10:57:30;19.40;99.90
13488;DHT22;6816;48.506;9.050;2023-05-14T11:00:33;19.60;99.90
13488;DHT22;6816;48.506;9.050;2023-05-14T11:03:42;19.80;99.90
13488;DHT22;6816;48.506;9.050;2023-05-14T11:06:44;20.00;99.90
13488;DHT22;6816;48.506;9.050;2023-05-14T11:09:46;20.20;99.90
13488;DHT22;6816;48.506;9.050;2023-05-14T11:12:48;20.30;99.90
13488;DHT22;6816;48.506;9.050;2023-05-14T11:15:50;20.30;99.90
13488;DHT22;6816;48.506;9.050;2023-05-14T11:19:01;20.30;99.90
13488;DHT22;6816;48.506;9.050;2023-05-14T11:22:02;20.30;99.90
13488;DHT22;6816;48.506;9.050;2023-05-14T11:25:04;20.30;99.90
13488;DHT22;6816;48.506;9.050;2023-05-14T11:28:05;20.20;99.90
13488;DHT22;6816;48.506;9.050;2023-05-14T11:31:06;20.20;99.90
13488;DHT22;6816;48.506;9.050;2023-05-14T11:34:07;20.10;99.90
13488;DHT22;6816;48.506;9.050;2023-05-14T11:37:08;20.00;99.90
13488;DHT22;6816;48.506;9.050;2023-05-14T11:40:14;20.00;99.90
13488;DHT22;6816;48.506;9.050;2023-05-14T11:43:15;19.90;99.90
13488;DHT22;6816;48.506;9.050;2023-05-14T11:46:16;19.90;99.90
13488;DHT22;6816;48.506;9.050;2023-05-14T11:49:20;20.00;99.90
13488;DHT22;6816;48.506;9.050;2023-05-14T11:52:22;20.00;99.90
13488;DHT22;6816;48.506;9.050;2023-05-14T11:55:22;20.10;99.90
13488;DHT22;6816;48.506;9.050;2023-05-14T11:58:23;20.20;99.90
13488;DHT22;6816;48.506;9.050;2023-05-14T12:01:24;20.30;99.90
13488;DHT22;6816;48.506;9.050;2023-05-14T12:04:24;20.30;99.90
13488;DHT22;6816;48.506;9.050;2023-05-14T12:07:28;20.30;99.90
13488;DHT22;6816;48.506;9.050;2023-05-14T12:10:28;20.30;99.90
13488;DHT22;6816;48.506;9.050;2023-05-14T12:13:30;20.30;99.90
13488;DHT22;6816;48.506;9.050;2023-05-14T12:16:31;20.30;99.90
13488;DHT22;6816;48.506;9.050;2023-05-14T12:19:31;20.40;99.90
13488;DHT22;6816;48.506;9.050;2023-05-14T12:22:33;20.40;99.90
13488;DHT22;6816;48.506;9.050;2023-05-14T12:25:33;20.50;99.90
13488;DHT22;6816;48.506;9.050;2023-05-14T12:28:37;20.50;99.90
13488;DHT22;6816;48.506;9.050;2023-05-14T12:31:47;20.60;99.90
13488;DHT22;6816;48.506;9.050;2023-05-14T12:34:47;20.60;99.50
13488;DHT22;6816;48.506;9.050;2023-05-14T12:37:48;20.80;99.90
13488;DHT22;6816;48.506;9.050;2023-05-14T12:40:49;20.80;99.90
13488;DHT22;6816;48.506;9.050;2023-05-14T12:43:49;20.90;99.90
13488;DHT22;6816;48.506;9.050;2023-05-14T12:46:50;20.90;99.90
13488;DHT22;6816;48.506;9.050;2023-05-14T12:49:50;20.90;99.90
13488;DHT22;6816;48.506;9.050;2023-05-14T12:52:51;20.90;99.90
13488;DHT22;6816;48.506;9.050;2023-05-14T12:55:52;21.00;99.90
13488;DHT22;6816;48.506;9.050;2023-05-14T12:58:54;21.10;99.90
13488;DHT22;6816;48.506;9.050;2023-05-14T13:01:55;21.10;99.90
13488;DHT22;6816;48.506;9.050;2023-05-14T13:04:56;21.20;99.90
13488;DHT22;6816;48.506;9.050;2023-05-14T13:07:58;21.20;99.90
13488;DHT22;6816;48.506;9.050;2023-05-14T13:10:59;21.10;99.40
13488;DHT22;6816;48.506;9.050;2023-05-14T13:14:01;21.10;99.80
13488;DHT22;6816;48.506;9.050;2023-05-14T13:17:02;21.00;99.10
13488;DHT22;6816;48.506;9.050;2023-05-14T13:20:04;21.00;99.10
13488;DHT22;6816;48.506;9.050;2023-05-14T13:23:04;20.90;98.90
13488;DHT22;6816;48.506;9.050;2023-05-14T13:26:05;20.80;98.70
13488;DHT22;6816;48.506;9.050;2023-05-14T13:29:06;20.70;98.90
13488;DHT22;6816;48.506;9.050;2023-05-14T13:32:06;20.70;99.10
13488;DHT22;6816;48.506;9.050;2023-05-14T13:35:08;20.50;99.30
13488;DHT22;6816;48.506;9.050;2023-05-14T13:38:08;20.50;99.70
13488;DHT22;6816;48.506;9.050;2023-05-14T13:41:09;20.40;99.90
13488;DHT22;6816;48.506;9.050;2023-05-14T13:44:09;20.40;99.90
13488;DHT22;6816;48.506;9.050;2023-05-14T13:47:10;20.40;99.90
13488;DHT22;6816;48.506;9.050;2023-05-14T13:50:11;20.30;99.90
13488;DHT22;6816;48.506;9.050;2023-05-14T13:53:11;20.30;99.90
13488;DHT22;6816;48.506;9.050;2023-05-14T13:56:12;20.40;99.90
13488;DHT22;6816;48.506;9.050;2023-05-14T13:59:13;20.50;99.90
13488;DHT22;6816;48.506;9.050;2023-05-14T14:02:14;20.60;99.90
13488;DHT22;6816;48.506;9.050;2023-05-14T14:05:15;20.60;99.90
13488;DHT22;6816;48.506;9.050;2023-05-14T14:08:15;20.70;99.90
13488;DHT22;6816;48.506;9.050;2023-05-14T14:11:16;20.70;99.90
13488;DHT22;6816;48.506;9.050;2023-05-14T14:14:17;20.70;99.70
13488;DHT22;6816;48.506;9.050;2023-05-14T14:17:18;20.50;99.00
13488;DHT22;6816;48.506;9.050;2023-05-14T14:20:18;20.30;98.90
13488;DHT22;6816;48.506;9.050;2023-05-14T14:23:19;20.10;99.10
13488;DHT22;6816;48.506;9.050;2023-05-14T14:26:20;19.90;99.70
13488;DHT22;6816;48.506;9.050;2023-05-14T14:29:20;19.70;99.90
13488;DHT22;6816;48.506;9.050;2023-05-14T14:32:23;19.50;99.90
13488;DHT22;6816;48.506;9.050;2023-05-14T14:35:23;19.40;99.90
13488;DHT22;6816;48.506;9.050;2023-05-14T14:38:24;19.30;99.90
13488;DHT22;6816;48.506;9.050;2023-05-14T14:41:24;19.20;99.90
13488;DHT22;6816;48.506;9.050;2023-05-14T14:44:26;19.10;99.90
13488;DHT22;6816;48.506;9.050;2023-05-14T14:47:27;19.00;99.90
13488;DHT22;6816;48.506;9.050;2023-05-14T14:50:29;18.90;99.90
13488;DHT22;6816;48.506;9.050;2023-05-14T14:53:30;18.80;99.90
13488;DHT22;6816;48.506;9.050;2023-05-14T14:56:31;18.70;99.90
13488;DHT22;6816;48.506;9.050;2023-05-14T14:59:31;18.60;99.90
13488;DHT22;6816;48.506;9.050;2023-05-14T15:02:32;18.50;99.90
13488;DHT22;6816;48.506;9.050;2023-05-14T15:05:32;18.40;99.90
13488;DHT22;6816;48.506;9.050;2023-05-14T15:08:33;18.30;99.90
13488;DHT22;6816;48.506;9.050;2023-05-14T15:11:34;18.20;99.90
13488;DHT22;6816;48.506;9.050;2023-05-14T15:14:35;18.20;99.90
13488;DHT22;6816;48.506;9.050;2023-05-14T15:17:36;18.20;99.90
13488;DHT22;6816;48.506;9.050;2023-05-14T15:20:36;18.10;99.90
13488;DHT22;6816;48.506;9.050;2023-05-14T15:23:37;18.20;99.90
13488;DHT22;6816;48.506;9.050;2023-05-14T15:26:38;18.20;99.90
13488;DHT22;6816;48.506;9.050;2023-05-14T15:29:38;18.30;99.90
13488;DHT22;6816;48.506;9.050;2023-05-14T15:32:41;18.40;99.90
13488;DHT22;6816;48.506;9.050;2023-05-14T15:35:41;18.50;99.90
13488;DHT22;6816;48.506;9.050;2023-05-14T15:38:42;18.50;99.90
13488;DHT22;6816;48.506;9.050;2023-05-14T15:41:43;18.50;99.90
13488;DHT22;6816;48.506;9.050;2023-05-14T15:44:44;18.50;99.90
13488;DHT22;6816;48.506;9.050;2023-05-14T15:47:45;18.50;99.90
13488;DHT22;6816;48.506;9.050;2023-05-14T15:50:47;18.50;99.90
13488;DHT22;6816;48.506;9.050;2023-05-14T15:53:48;18.40;99.90
13488;DHT22;6816;48.506;9.050;2023-05-14T15:56:49;18.40;99.90
13488;DHT22;6816;48.506;9.050;2023-05-14T15:59:50;18.40;99.90
13488;DHT22;6816;48.506;9.050;2023-05-14T16:02:50;18.30;99.90
13488;DHT22;6816;48.506;9.050;2023-05-14T16:05:51;18.30;99.90
13488;DHT22;6816;48.506;9.050;2023-05-14T16:08:52;18.30;99.90
13488;DHT22;6816;48.506;9.050;2023-05-14T16:11:53;18.20;99.90
13488;DHT22;6816;48.506;9.050;2023-05-14T16:14:53;18.20;99.90
13488;DHT22;6816;48.506;9.050;2023-05-14T16:17:56;18.20;99.90
13488;DHT22;6816;48.506;9.050;2023-05-14T16:20:56;18.10;99.90
13488;DHT22;6816;48.506;9.050;2023-05-14T16:23:57;18.10;99.90
13488;DHT22;6816;48.506;9.050;2023-05-14T16:26:58;18.10;99.90
13488;DHT22;6816;48.506;9.050;2023-05-14T16:30:00;18.00;99.90
13488;DHT22;6816;48.506;9.050;2023-05-14T16:33:00;18.00;99.90
13488;DHT22;6816;48.506;9.050;2023-05-14T16:36:01;17.90;99.90
13488;DHT22;6816;48.506;9.050;2023-05-14T16:39:02;17.90;99.90
13488;DHT22;6816;48.506;9.050;2023-05-14T16:42:02;17.80;99.90
13488;DHT22;6816;48.506;9.050;2023-05-14T16:45:03;17.80;99.90
13488;DHT22;6816;48.506;9.050;2023-05-14T16:48:04;17.70;99.90
13488;DHT22;6816;48.506;9.050;2023-05-14T16:51:05;17.70;99.90
13488;DHT22;6816;48.506;9.050;2023-05-14T16:54:06;17.60;99.90
13488;DHT22;6816;48.506;9.050;2023-05-14T16:57:06;17.50;99.90
13488;DHT22;6816;48.506;9.050;2023-05-14T17:00:07;17.50;99.90
13488;DHT22;6816;48.506;9.050;2023-05-14T17:03:08;17.40;99.90
13488;DHT22;6816;48.506;9.050;2023-05-14T17:06:09;17.40;99.90
13488;DHT22;6816;48.506;9.050;2023-05-14T17:09:10;17.30;99.90
13488;DHT22;6816;48.506;9.050;2023-05-14T17:12:10;17.30;99.90
13488;DHT22;6816;48.506;9.050;2023-05-14T17:15:12;17.30;99.90
13488;DHT22;6816;48.506;9.050;2023-05-14T17:18:13;17.20;99.90
13488;DHT22;6816;48.506;9.050;2023-05-14T17:21:14;17.20;99.90
13488;DHT22;6816;48.506;9.050;2023-05-14T17:24:14;17.20;99.90
13488;DHT22;6816;48.506;9.050;2023-05-14T17:27:15;17.20;99.90
13488;DHT22;6816;48.506;9.050;2023-05-14T17:30:16;17.20;99.90
13488;DHT22;6816;48.506;9.050;2023-05-14T17:33:16;17.10;99.90
13488;DHT22;6816;48.506;9.050;2023-05-14T17:36:17;17.10;99.90
13488;DHT22;6816;48.506;9.050;2023-05-14T17:39:17;17.10;99.90
13488;DHT22;6816;48.506;9.050;2023-05-14T17:42:18;17.10;99.90
13488;DHT22;6816;48.506;9.050;2023-05-14T17:45:19;17.10;99.90
13488;DHT22;6816;48.506;9.050;2023-05-14T17:48:20;17.10;99.90
13488;DHT22;6816;48.506;9.050;2023-05-14T17:51:21;17.20;99.90
13488;DHT22;6816;48.506;9.050;2023-05-14T17:54:22;17.20;99.90
13488;DHT22;6816;48.506;9.050;2023-05-14T17:57:22;17.20;99.90
13488;DHT22;6816;48.506;9.050;2023-05-14T18:00:23;17.10;99.90
13488;DHT22;6816;48.506;9.050;2023-05-14T18:03:24;17.10;99.90
13488;DHT22;6816;48.506;9.050;2023-05-14T18:06:24;17.10;99.90
13488;DHT22;6816;48.506;9.050;2023-05-14T18:09:25;17.10;99.90
13488;DHT22;6816;48.506;9.050;2023-05-14T18:12:26;17.00;99.90
13488;DHT22;6816;48.506;9.050;2023-05-14T18:15:26;17.00;99.90
13488;DHT22;6816;48.506;9.050;2023-05-14T18:18:27;16.90;99.90
13488;DHT22;6816;48.506;9.050;2023-05-14T18:21:28;16.90;99.90
13488;DHT22;6816;48.506;9.050;2023-05-14T18:24:28;16.80;99.90
13488;DHT22;6816;48.506;9.050;2023-05-14T18:27:29;16.80;99.90
13488;DHT22;6816;48.506;9.050;2023-05-14T18:30:30;16.80;99.90
13488;DHT22;6816;48.506;9.050;2023-05-14T18:33:31;16.70;99.90
13488;DHT22;6816;48.506;9.050;2023-05-14T18:36:32;16.70;99.90
13488;DHT22;6816;48.506;9.050;2023-05-14T18:39:32;16.60;99.90
13488;DHT22;6816;48.506;9.050;2023-05-14T18:42:33;16.60;99.90
13488;DHT22;6816;48.506;9.050;2023-05-14T18:45:34;16.50;99.90
13488;DHT22;6816;48.506;9.050;2023-05-14T18:48:34;16.50;99.90
13488;DHT22;6816;48.506;9.050;2023-05-14T18:51:35;16.40;99.90
13488;DHT22;6816;48.506;9.050;2023-05-14T18:54:35;16.40;99.90
13488;DHT22;6816;48.506;9.050;2023-05-14T18:57:37;16.30;99.90
13488;DHT22;6816;48.506;9.050;2023-05-14T19:00:38;16.20;99.90
13488;DHT22;6816;48.506;9.050;2023-05-14T19:03:39;16.20;99.90
13488;DHT22;6816;48.506;9.050;2023-05-14T19:06:41;16.10;99.90
13488;DHT22;6816;48.506;9.050;2023-05-14T19:09:41;16.00;99.90
13488;DHT22;6816;48.506;9.050;2023-05-14T19:12:42;15.90;99.90
13488;DHT22;6816;48.506;9.050;2023-05-14T19:15:43;15.90;99.90
13488;DHT22;6816;48.506;9.050;2023-05-14T19:18:43;15.80;99.90
13488;DHT22;6816;48.506;9.050;2023-05-14T19:21:45;15.70;99.90
13488;DHT22;6816;48.506;9.050;2023-05-14T19:24:45;15.60;99.90
13488;DHT22;6816;48.506;9.050;2023-05-14T19:27:46;15.50;99.90
13488;DHT22;6816;48.506;9.050;2023-05-14T19:30:50;15.40;99.90
13488;DHT22;6816;48.506;9.050;2023-05-14T19:33:51;15.40;99.90